createdAt,value
2023-04-12T00:00:17.816Z,66.46
2023-04-12T00:03:21.374Z,67.03
2023-04-12T00:06:32.469Z,66.65
2023-04-12T00:09:36.491Z,67.13
2023-04-12T00:12:43.081Z,67.65
2023-04-12T00:15:45.413Z,67.96
2023-04-12T00:18:47.511Z,68.07
2023-04-12T00:21:50.197Z,68.31
2023-04-12T00:24:53.627Z,68.17
2023-04-12T00:27:56.248Z,69.60
2023-04-12T00:30:58.276Z,68.57
2023-04-12T00:34:01.472Z,67.67
2023-04-12T00:37:04.054Z,67.19
2023-04-12T00:40:10.112Z,66.87
2023-04-12T00:43:19.080Z,68.70
2023-04-12T00:46:21.425Z,68.58
2023-04-12T00:49:23.832Z,67.44
2023-04-12T00:52:28.188Z,68.68
2023-04-12T00:55:30.863Z,69.04
2023-04-12T00:58:35.851Z,67.34
2023-04-12T01:01:41.414Z,68.54
2023-04-12T01:04:44.168Z,68.34
2023-04-12T01:07:51.716Z,67.99
2023-04-12T01:10:57.988Z,69.01
2023-04-12T01:14:02.641Z,68.72
2023-04-12T01:17:10.515Z,68.32
2023-04-12T01:20:17.188Z,69.31
2023-04-12T01:23:22.283Z,69.37
2023-04-12T01:26:45.874Z,69.04
2023-04-12T01:29:50.100Z,68.59
2023-04-12T01:32:52.973Z,68.80
2023-04-12T01:35:55.079Z,67.29
2023-04-12T01:38:57.336Z,67.73
2023-04-12T01:41:59.632Z,69.20
2023-04-12T01:45:03.322Z,67.83
2023-04-12T01:48:09.794Z,68.26
2023-04-12T01:51:15.143Z,66.70
2023-04-12T01:54:22.665Z,67.95
2023-04-12T01:57:25.029Z,67.42
2023-04-12T02:00:27.330Z,67.62
2023-04-12T02:03:30.756Z,67.87
2023-04-12T02:06:33.490Z,66.81
2023-04-12T02:09:39.413Z,67.01
2023-04-12T02:12:41.683Z,70.31
2023-04-12T02:15:44.221Z,70.03
2023-04-12T02:18:46.568Z,69.23
2023-04-12T02:21:48.816Z,69.11
2023-04-12T02:24:51.061Z,67.49
2023-04-12T02:27:53.446Z,66.10
2023-04-12T02:30:55.905Z,66.76
2023-04-12T02:33:58.334Z,67.46
2023-04-12T02:37:00.612Z,67.98
2023-04-12T02:40:06.056Z,66.58
2023-04-12T02:43:09.539Z,65.81
2023-04-12T02:46:14.368Z,68.55
2023-04-12T02:49:16.724Z,67.49
2023-04-12T02:52:19.084Z,68.14
2023-04-12T02:55:22.189Z,68.71
2023-04-12T02:58:24.454Z,69.05
2023-04-12T03:01:26.901Z,68.99
2023-04-12T03:04:30.574Z,68.53
2023-04-12T03:07:35.020Z,68.25
2023-04-12T03:10:37.450Z,67.47
2023-04-12T03:13:39.757Z,66.35
2023-04-12T03:16:41.624Z,67.73
2023-04-12T03:19:46.514Z,66.71
2023-04-12T03:22:48.829Z,68.21
2023-04-12T03:25:51.233Z,67.05
2023-04-12T03:29:05.389Z,65.97
2023-04-12T03:32:08.280Z,67.72
2023-04-12T03:35:12.636Z,65.78
2023-04-12T03:38:16.868Z,66.02
2023-04-12T03:41:18.754Z,65.26
2023-04-12T03:44:21.384Z,66.00
2023-04-12T03:47:23.978Z,64.48
2023-04-12T03:50:29.693Z,64.98
2023-04-12T03:53:32.491Z,64.42
2023-04-12T03:56:34.896Z,65.15
2023-04-12T03:59:38.445Z,63.93
2023-04-12T04:02:41.667Z,61.70
2023-04-12T04:05:43.622Z,61.87
2023-04-12T04:08:45.483Z,61.93
2023-04-12T04:11:47.456Z,60.71
2023-04-12T04:14:50.669Z,60.01
2023-04-12T04:17:52.830Z,59.32
2023-04-12T04:20:55.262Z,59.46
2023-04-12T04:23:59.061Z,60.12
2023-04-12T04:27:01.668Z,59.83
2023-04-12T04:30:05.147Z,59.66
2023-04-12T04:33:08.101Z,58.71
2023-04-12T04:36:10.328Z,58.31
2023-04-12T04:39:12.308Z,57.59
2023-04-12T04:42:14.232Z,60.39
2023-04-12T04:45:16.098Z,58.87
2023-04-12T04:48:19.181Z,59.19
2023-04-12T04:51:24.142Z,59.54
2023-04-12T04:54:26.457Z,58.49
2023-04-12T04:57:28.802Z,57.59
2023-04-12T05:00:31.300Z,57.59
2023-04-12T05:03:34.790Z,55.31
2023-04-12T05:06:37.074Z,52.32
2023-04-12T05:09:39.605Z,52.13
2023-04-12T05:12:41.919Z,52.77
2023-04-12T05:15:44.286Z,51.77
2023-04-12T05:18:46.593Z,49.96
2023-04-12T05:21:51.192Z,48.05
2023-04-12T05:24:53.637Z,47.29
2023-04-12T05:27:56.390Z,49.50
2023-04-12T05:30:58.988Z,48.37
2023-04-12T05:34:01.014Z,47.79
2023-04-12T05:37:04.228Z,45.44
2023-04-12T05:40:08.909Z,47.19
2023-04-12T05:43:19.079Z,47.89
2023-04-12T05:46:28.137Z,47.12
2023-04-12T05:49:36.603Z,48.75
2023-04-12T05:52:41.977Z,47.54
2023-04-12T05:55:45.441Z,45.58
2023-04-12T05:58:58.183Z,46.09
2023-04-12T06:02:05.497Z,45.90
2023-04-12T06:05:17.336Z,44.70
2023-04-12T06:08:20.205Z,42.19
2023-04-12T06:11:26.636Z,42.53
2023-04-12T06:14:33.187Z,42.79
2023-04-12T06:20:56.041Z,43.98
2023-04-12T06:23:58.056Z,42.50
2023-04-12T06:26:59.928Z,41.85
2023-04-12T06:30:01.925Z,43.85
2023-04-12T06:33:03.988Z,44.39
2023-04-12T06:36:08.798Z,43.99
2023-04-12T06:39:12.218Z,42.13
2023-04-12T06:42:14.856Z,41.80
2023-04-12T06:45:17.500Z,42.63
2023-04-12T06:48:22.036Z,44.83
2023-04-12T06:51:24.187Z,43.45
2023-04-12T06:54:26.528Z,37.07
2023-04-12T06:57:28.604Z,37.58
2023-04-12T07:00:30.771Z,36.76
2023-04-12T07:03:35.939Z,38.64
2023-04-12T07:06:38.029Z,39.45
2023-04-12T07:09:40.531Z,39.58
2023-04-12T07:12:42.502Z,39.48
2023-04-12T07:15:44.677Z,38.63
2023-04-12T07:18:46.801Z,38.09
2023-04-12T07:21:51.197Z,37.82
2023-04-12T07:24:53.334Z,40.66
2023-04-12T07:27:55.816Z,36.87
2023-04-12T07:30:57.763Z,37.36
2023-04-12T07:33:59.730Z,36.86
2023-04-12T07:37:01.734Z,38.49
2023-04-12T07:40:03.948Z,36.55
2023-04-12T07:43:08.272Z,34.76
2023-04-12T07:46:10.884Z,34.73
2023-04-12T07:49:12.871Z,35.09
2023-04-12T07:52:14.792Z,33.26
2023-04-12T07:55:16.763Z,34.37
2023-04-12T07:58:18.991Z,34.28
2023-04-12T08:01:22.315Z,35.18
2023-04-12T08:04:24.929Z,35.13
2023-04-12T08:07:27.614Z,38.35
2023-04-12T08:10:29.774Z,36.60
2023-04-12T08:13:32.059Z,36.07
2023-04-12T08:16:34.889Z,34.05
2023-04-12T08:19:37.199Z,36.28
2023-04-12T08:22:39.687Z,35.00
2023-04-12T08:25:44.869Z,35.28
2023-04-12T08:28:47.384Z,33.01
2023-04-12T08:31:49.433Z,32.37
2023-04-12T08:34:51.685Z,33.62
2023-04-12T08:37:53.589Z,34.54
2023-04-12T08:40:57.796Z,34.27
2023-04-12T08:43:59.988Z,32.38
2023-04-12T08:47:03.018Z,30.89
2023-04-12T08:50:09.539Z,31.67
2023-04-12T08:53:12.168Z,30.02
2023-04-12T08:56:14.762Z,30.52
2023-04-12T08:59:16.682Z,28.42
2023-04-12T09:02:18.736Z,27.70
2023-04-12T09:05:23.237Z,31.15
2023-04-12T09:08:25.696Z,26.81
2023-04-12T09:11:28.015Z,29.83
2023-04-12T09:14:29.998Z,28.76
2023-04-12T09:17:34.090Z,30.75
2023-04-12T09:20:37.028Z,28.00
2023-04-12T09:23:39.151Z,27.12
2023-04-12T09:26:43.859Z,27.02
2023-04-12T09:29:52.513Z,29.71
2023-04-12T09:32:55.836Z,28.30
2023-04-12T09:36:02.130Z,26.06
2023-04-12T09:39:05.318Z,28.26
2023-04-12T09:42:18.087Z,25.97
2023-04-12T09:45:30.332Z,25.07
2023-04-12T09:48:32.257Z,27.55
2023-04-12T09:51:34.361Z,30.85
2023-04-12T09:54:39.775Z,29.65
2023-04-12T09:57:42.240Z,29.67
2023-04-12T10:00:44.309Z,27.12
2023-04-12T10:03:46.780Z,27.14
2023-04-12T10:06:48.972Z,25.20
2023-04-12T10:09:51.084Z,26.36
2023-04-12T10:12:55.582Z,24.72
2023-04-12T10:15:59.995Z,21.51
2023-04-12T10:19:02.370Z,21.73
2023-04-12T10:22:04.445Z,25.12
2023-04-12T10:25:09.524Z,25.74
2023-04-12T10:28:15.481Z,24.05
2023-04-12T10:31:27.091Z,20.70
2023-04-12T10:34:33.391Z,19.07
2023-04-12T10:37:54.161Z,21.17
2023-04-12T10:41:15.564Z,21.53
2023-04-12T10:44:24.670Z,26.64
2023-04-12T10:48:06.737Z,21.54
2023-04-12T10:51:23.545Z,23.10
2023-04-12T10:54:25.546Z,25.60
2023-04-12T10:57:49.519Z,22.26
2023-04-12T11:00:58.481Z,22.81
2023-04-12T11:04:16.846Z,24.50
2023-04-12T11:07:19.287Z,24.43
2023-04-12T11:10:21.889Z,28.35
2023-04-12T11:13:23.948Z,26.32
2023-04-12T11:16:26.145Z,27.07
2023-04-12T11:19:28.398Z,26.82
2023-04-12T11:22:31.783Z,25.13
2023-04-12T11:25:33.806Z,24.52
2023-04-12T11:28:35.983Z,26.03
2023-04-12T11:31:41.037Z,23.70
2023-04-12T11:34:44.065Z,21.45
2023-04-12T11:37:46.328Z,24.12
2023-04-12T11:40:48.488Z,20.60
2023-04-12T11:43:50.637Z,22.43
2023-04-12T11:46:52.750Z,18.88
2023-04-12T11:49:54.906Z,20.50
2023-04-12T11:53:09.032Z,21.41
2023-04-12T11:56:10.923Z,21.19
2023-04-12T11:59:13.136Z,21.49
2023-04-12T12:02:22.634Z,20.59
2023-04-12T12:05:27.330Z,21.31
2023-04-12T12:08:30.182Z,22.09
2023-04-12T12:11:33.188Z,20.99
2023-04-12T12:14:38.089Z,18.95
2023-04-12T12:17:40.572Z,18.33
2023-04-12T12:20:43.359Z,17.80
2023-04-12T12:23:45.819Z,15.56
2023-04-12T12:26:49.621Z,18.18
2023-04-12T12:29:53.458Z,15.80
2023-04-12T12:32:56.536Z,16.45
2023-04-12T12:35:58.798Z,14.97
2023-04-12T12:39:19.046Z,15.48
2023-04-12T12:42:21.332Z,16.39
2023-04-12T12:45:24.117Z,20.01
2023-04-12T12:48:26.155Z,15.17
2023-04-12T12:51:28.513Z,15.26
2023-04-12T12:54:40.095Z,13.52
2023-04-12T13:00:46.120Z,14.69
2023-04-12T13:03:48.132Z,16.29
2023-04-12T13:06:52.778Z,18.59
2023-04-12T13:09:54.755Z,19.51
2023-04-12T13:12:57.007Z,21.71
2023-04-12T13:15:59.051Z,22.95
2023-04-12T13:19:00.943Z,21.25
2023-04-12T13:22:03.177Z,23.75
2023-04-12T13:25:05.657Z,23.04
2023-04-12T13:28:07.573Z,23.13
2023-04-12T13:31:09.935Z,23.41
2023-04-12T13:34:11.869Z,24.91
2023-04-12T13:37:13.806Z,26.24
2023-04-12T13:40:15.979Z,25.78
2023-04-12T13:43:20.077Z,24.69
2023-04-12T13:46:22.181Z,26.14
2023-04-12T13:49:24.212Z,25.52
2023-04-12T13:52:26.347Z,25.76
2023-04-12T13:55:28.453Z,26.19
2023-04-12T13:58:30.452Z,26.31
2023-04-12T14:01:32.930Z,26.16
2023-04-12T14:04:35.010Z,24.85
2023-04-12T14:07:36.883Z,24.98
2023-04-12T14:10:38.823Z,25.65
2023-04-12T14:13:40.703Z,25.86
2023-04-12T14:16:42.662Z,25.52
2023-04-12T14:19:45.050Z,25.30
2023-04-12T14:22:46.927Z,26.58
2023-04-12T14:25:49.917Z,25.41
2023-04-12T14:28:52.196Z,26.10
2023-04-12T14:31:54.168Z,25.05
2023-04-12T14:34:56.217Z,24.33
2023-04-12T14:37:58.109Z,23.52
2023-04-12T14:41:00.181Z,23.89
2023-04-12T14:44:02.295Z,24.34
2023-04-12T14:47:04.196Z,25.07
2023-04-12T14:50:06.531Z,22.96
2023-04-12T14:53:09.934Z,22.81
2023-04-12T14:56:21.058Z,23.46
2023-04-12T14:59:27.303Z,22.67
2023-04-12T15:02:29.615Z,21.69
2023-04-12T15:05:31.884Z,22.18
2023-04-12T15:08:34.947Z,21.60
2023-04-12T15:11:38.466Z,21.66
2023-04-12T15:14:41.114Z,24.10
2023-04-12T15:17:43.158Z,23.23
2023-04-12T15:20:45.193Z,22.03
2023-04-12T15:23:47.462Z,23.00
2023-04-12T15:26:50.898Z,23.10
2023-04-12T15:29:52.884Z,22.37
2023-04-12T15:32:54.862Z,21.52
2023-04-12T15:35:56.922Z,23.21
2023-04-12T15:38:58.832Z,23.32
2023-04-12T15:42:00.941Z,22.43
2023-04-12T15:45:02.888Z,22.96
2023-04-12T15:48:04.702Z,21.49
2023-04-12T15:51:06.853Z,22.56
2023-04-12T15:54:08.793Z,22.77
2023-04-12T15:57:11.224Z,22.68
2023-04-12T16:00:26.934Z,21.24
2023-04-12T16:03:29.143Z,21.79
2023-04-12T16:06:34.756Z,21.96
2023-04-12T16:09:38.162Z,22.23
2023-04-12T16:12:39.977Z,21.61
2023-04-12T16:15:41.941Z,22.12
2023-04-12T16:18:46.980Z,21.83
2023-04-12T16:21:49.003Z,21.70
2023-04-12T16:24:50.945Z,22.03
2023-04-12T16:27:53.028Z,22.39
2023-04-12T16:30:55.397Z,21.99
2023-04-12T16:33:57.454Z,22.64
2023-04-12T16:36:59.312Z,22.82
2023-04-12T16:40:01.302Z,22.44
2023-04-12T16:43:03.850Z,22.32
2023-04-12T16:46:06.249Z,23.42
2023-04-12T16:49:08.317Z,22.49
2023-04-12T16:52:10.341Z,23.95
2023-04-12T16:55:12.496Z,24.86
2023-04-12T16:58:14.740Z,23.88
2023-04-12T17:01:17.573Z,23.62
2023-04-12T17:04:19.865Z,23.75
2023-04-12T17:07:22.487Z,23.77
2023-04-12T17:10:24.951Z,23.44
2023-04-12T17:13:26.926Z,22.50
2023-04-12T17:16:29.176Z,23.47
2023-04-12T17:19:31.193Z,23.06
2023-04-12T17:22:33.136Z,23.14
2023-04-12T17:25:35.187Z,23.27
2023-04-12T17:28:39.474Z,22.35
2023-04-12T17:31:42.010Z,23.07
2023-04-12T17:34:44.942Z,22.77
2023-04-12T17:37:46.915Z,23.77
2023-04-12T17:40:48.826Z,23.83
2023-04-12T17:43:50.881Z,23.65
2023-04-12T17:46:52.738Z,24.18
2023-04-12T17:49:54.634Z,23.89
2023-04-12T17:52:56.995Z,24.01
2023-04-12T17:55:58.921Z,24.55
2023-04-12T17:59:02.148Z,24.05
2023-04-12T18:02:04.240Z,23.43
2023-04-12T18:05:07.593Z,23.67
2023-04-12T18:08:10.043Z,23.46
2023-04-12T18:11:13.071Z,23.99
2023-04-12T18:14:15.099Z,24.68
2023-04-12T18:17:16.981Z,24.45
2023-04-12T18:20:19.059Z,24.66
2023-04-12T18:23:21.532Z,25.07
2023-04-12T18:26:23.574Z,25.29
2023-04-12T18:29:25.886Z,25.78
2023-04-12T18:32:27.863Z,25.25
2023-04-12T18:35:29.754Z,26.20
2023-04-12T18:38:32.902Z,26.51
2023-04-12T18:41:34.893Z,26.56
2023-04-12T18:44:37.780Z,25.82
2023-04-12T18:47:40.588Z,26.23
2023-04-12T18:50:42.442Z,26.59
2023-04-12T18:53:44.402Z,27.55
2023-04-12T18:56:46.358Z,26.77
2023-04-12T18:59:49.050Z,27.60
2023-04-12T19:02:51.322Z,27.26
2023-04-12T19:05:56.792Z,27.92
2023-04-12T19:08:58.757Z,28.51
2023-04-12T19:12:01.541Z,29.05
2023-04-12T19:15:03.637Z,28.71
2023-04-12T19:18:05.670Z,28.61
2023-04-12T19:21:07.741Z,27.68
2023-04-12T19:24:09.691Z,28.42
2023-04-12T19:27:11.581Z,28.72
2023-04-12T19:30:14.823Z,29.40
2023-04-12T19:33:16.753Z,29.98
2023-04-12T19:36:19.201Z,29.58
2023-04-12T19:39:22.796Z,30.08
2023-04-12T19:42:24.655Z,30.40
2023-04-12T19:45:27.343Z,29.61
2023-04-12T19:48:29.993Z,30.34
2023-04-12T19:51:32.404Z,32.03
2023-04-12T19:54:34.392Z,31.30
2023-04-12T19:57:38.102Z,31.18
2023-04-12T20:00:44.785Z,31.24
2023-04-12T20:03:46.914Z,31.74
2023-04-12T20:06:49.494Z,31.61
2023-04-12T20:09:51.483Z,31.81
2023-04-12T20:12:53.361Z,32.47
2023-04-12T20:15:55.405Z,31.63
2023-04-12T20:18:59.033Z,32.00
2023-04-12T20:22:04.130Z,31.72
2023-04-12T20:25:06.328Z,32.56
2023-04-12T20:28:08.970Z,32.71
2023-04-12T20:31:12.847Z,32.77
2023-04-12T20:34:14.871Z,32.72
2023-04-12T20:37:17.292Z,33.25
2023-04-12T20:40:19.474Z,32.85
2023-04-12T20:43:21.358Z,33.60
2023-04-12T20:46:25.938Z,34.15
2023-04-12T20:49:28.199Z,34.16
2023-04-12T20:52:30.363Z,34.97
2023-04-12T20:55:34.960Z,34.98
2023-04-12T20:58:37.485Z,34.63
2023-04-12T21:01:39.457Z,34.89
2023-04-12T21:04:41.826Z,35.36
2023-04-12T21:07:44.005Z,36.04
2023-04-12T21:10:48.264Z,36.13
2023-04-12T21:13:51.076Z,35.38
2023-04-12T21:16:54.341Z,36.48
2023-04-12T21:19:56.253Z,36.02
2023-04-12T21:22:58.246Z,35.41
2023-04-12T21:26:00.193Z,36.80
2023-04-12T21:29:02.688Z,36.71
2023-04-12T21:32:05.775Z,36.99
2023-04-12T21:35:08.097Z,36.88
2023-04-12T21:38:09.930Z,37.25
2023-04-12T21:41:12.616Z,38.13
2023-04-12T21:44:14.454Z,38.71
2023-04-12T21:47:16.703Z,37.60
2023-04-12T21:50:18.633Z,38.14
2023-04-12T21:53:20.500Z,39.09
2023-04-12T21:56:22.440Z,37.35
2023-04-12T21:59:25.441Z,37.27
2023-04-12T22:02:27.606Z,38.36
2023-04-12T22:05:29.874Z,36.77
2023-04-12T22:08:32.999Z,37.92
2023-04-12T22:11:35.693Z,38.13
2023-04-12T22:14:37.862Z,38.89
2023-04-12T22:17:41.061Z,39.34
2023-04-12T22:20:43.143Z,39.76
2023-04-12T22:23:45.723Z,40.00
2023-04-12T22:26:47.686Z,38.91
2023-04-12T22:29:50.584Z,38.47
2023-04-12T22:32:52.844Z,39.95
2023-04-12T22:35:55.150Z,39.41
2023-04-12T22:38:57.099Z,40.14
2023-04-12T22:41:59.411Z,40.05
2023-04-12T22:45:02.465Z,41.25
2023-04-12T22:48:04.448Z,41.17
2023-04-12T22:51:06.704Z,41.80
2023-04-12T22:54:09.678Z,42.17
2023-04-12T22:57:12.622Z,41.97
2023-04-12T23:00:17.025Z,39.80
2023-04-12T23:03:19.683Z,42.38
2023-04-12T23:06:22.112Z,41.62
2023-04-12T23:09:24.318Z,40.65
2023-04-12T23:12:26.280Z,42.31
2023-04-12T23:15:28.266Z,40.77
2023-04-12T23:18:30.450Z,38.68
2023-04-12T23:21:32.616Z,38.76
2023-04-12T23:24:35.761Z,40.66
2023-04-12T23:27:39.144Z,41.29
2023-04-12T23:30:44.276Z,42.22
2023-04-12T23:33:46.462Z,42.48
2023-04-12T23:36:50.134Z,41.19
2023-04-12T23:39:54.720Z,41.64
2023-04-12T23:42:57.555Z,42.47
2023-04-12T23:46:00.666Z,41.86
2023-04-12T23:49:02.556Z,41.63
2023-04-12T23:52:04.600Z,41.60
2023-04-12T23:55:06.776Z,41.99
2023-04-12T23:58:08.932Z,42.21
